sensor_id;sensor_type;location;lat;lon;timestamp;pressure;altitude;pressure_sealevel;temperature;humidity
41062;BME280;26812;42.662;23.352;2024-03-23T00:53:46;94969.81;;;5.56;60.04
41062;BME280;26812;42.662;23.352;2024-03-23T00:56:11;94975.63;;;5.87;57.79
41062;BME280;26812;42.662;23.352;2024-03-23T00:58:37;94968.47;;;5.59;59.38
41062;BME280;26812;42.662;23.352;2024-03-23T01:01:02;94963.41;;;5.57;59.68
41062;BME280;26812;42.662;23.352;2024-03-23T01:03:29;94963.72;;;5.75;58.89
41062;BME280;26812;42.662;23.352;2024-03-23T01:05:59;94964.47;;;6.04;57.70
41062;BME280;26812;42.662;23.352;2024-03-23T01:08:24;94886.34;;;5.41;57.35
41062;BME280;26812;42.662;23.352;2024-03-23T01:11:02;94966.41;;;5.75;57.82
41062;BME280;26812;42.662;23.352;2024-03-23T01:13:30;94959.06;;;5.61;58.12
41062;BME280;26812;42.662;23.352;2024-03-23T01:15:56;94963.31;;;5.39;58.88
41062;BME280;26812;42.662;23.352;2024-03-23T01:18:22;94962.56;;;5.33;59.74
41062;BME280;26812;42.662;23.352;2024-03-23T01:20:48;94962.41;;;5.19;59.52
41062;BME280;26812;42.662;23.352;2024-03-23T01:23:14;94960.31;;;5.45;58.66
41062;BME280;26812;42.662;23.352;2024-03-23T01:25:39;94953.88;;;5.46;57.80
41062;BME280;26812;42.662;23.352;2024-03-23T01:28:05;94947.78;;;5.41;57.40
41062;BME280;26812;42.662;23.352;2024-03-23T01:30:35;94964.97;;;5.35;57.97
41062;BME280;26812;42.662;23.352;2024-03-23T01:33:01;94911.34;;;4.68;59.22
41062;BME280;26812;42.662;23.352;2024-03-23T01:35:28;94960.69;;;5.05;59.52
41062;BME280;26812;42.662;23.352;2024-03-23T01:37:55;94958.66;;;5.25;57.68
41062;BME280;26812;42.662;23.352;2024-03-23T01:40:20;94915.19;;;4.86;58.49
41062;BME280;26812;42.662;23.352;2024-03-23T01:42:58;94955.78;;;4.83;59.35
41062;BME280;26812;42.662;23.352;2024-03-23T01:45:27;94968.75;;;4.99;59.38
41062;BME280;26812;42.662;23.352;2024-03-23T01:47:52;94912.19;;;4.63;59.76
41062;BME280;26812;42.662;23.352;2024-03-23T01:50:19;94947.41;;;4.65;60.99
41062;BME280;26812;42.662;23.352;2024-03-23T01:52:45;94960.97;;;5.03;60.10
41062;BME280;26812;42.662;23.352;2024-03-23T01:55:10;94957.63;;;5.21;59.13
41062;BME280;26812;42.662;23.352;2024-03-23T01:57:37;94911.44;;;4.87;59.70
41062;BME280;26812;42.662;23.352;2024-03-23T02:00:02;94969.34;;;5.25;59.46
41062;BME280;26812;42.662;23.352;2024-03-23T02:02:28;94965.56;;;5.26;59.08
41062;BME280;26812;42.662;23.352;2024-03-23T02:04:53;94967.97;;;4.99;60.12
41062;BME280;26812;42.662;23.352;2024-03-23T02:07:19;94963.09;;;5.06;60.18
41062;BME280;26812;42.662;23.352;2024-03-23T02:09:44;94965.53;;;5.03;59.17
41062;BME280;26812;42.662;23.352;2024-03-23T02:12:10;94965.91;;;4.91;59.65
41062;BME280;26812;42.662;23.352;2024-03-23T02:14:36;94958.19;;;4.84;60.94
41062;BME280;26812;42.662;23.352;2024-03-23T02:17:02;94958.28;;;4.74;61.21
41062;BME280;26812;42.662;23.352;2024-03-23T02:19:28;94964.53;;;4.54;61.68
41062;BME280;26812;42.662;23.352;2024-03-23T02:21:54;94962.09;;;4.58;61.64
41062;BME280;26812;42.662;23.352;2024-03-23T02:24:21;94927.38;;;4.29;62.31
41062;BME280;26812;42.662;23.352;2024-03-23T02:26:46;94970.91;;;4.63;61.71
41062;BME280;26812;42.662;23.352;2024-03-23T02:29:14;94972.97;;;5.06;60.64
41062;BME280;26812;42.662;23.352;2024-03-23T02:31:39;94972.31;;;4.90;60.74
41062;BME280;26812;42.662;23.352;2024-03-23T02:34:05;94964.78;;;4.58;61.96
41062;BME280;26812;42.662;23.352;2024-03-23T02:36:30;94974.31;;;5.03;60.47
41062;BME280;26812;42.662;23.352;2024-03-23T02:38:56;94950.78;;;4.76;61.33
41062;BME280;26812;42.662;23.352;2024-03-23T02:41:21;94950.34;;;4.64;61.53
41062;BME280;26812;42.662;23.352;2024-03-23T02:43:49;94960.19;;;4.24;62.28
41062;BME280;26812;42.662;23.352;2024-03-23T02:46:15;94961.59;;;4.12;63.73
41062;BME280;26812;42.662;23.352;2024-03-23T02:48:41;94968.03;;;4.05;64.17
41062;BME280;26812;42.662;23.352;2024-03-23T02:51:06;94965.09;;;4.51;63.59
41062;BME280;26812;42.662;23.352;2024-03-23T02:53:32;94954.38;;;4.56;62.40
41062;BME280;26812;42.662;23.352;2024-03-23T02:55:58;94962.00;;;4.73;61.70
41062;BME280;26812;42.662;23.352;2024-03-23T02:58:23;94958.28;;;4.35;63.43
41062;BME280;26812;42.662;23.352;2024-03-23T03:00:49;94958.03;;;4.71;62.85
41062;BME280;26812;42.662;23.352;2024-03-23T03:03:14;94959.94;;;4.65;61.58
41062;BME280;26812;42.662;23.352;2024-03-23T03:05:41;94960.00;;;4.60;62.11
41062;BME280;26812;42.662;23.352;2024-03-23T03:08:06;94959.09;;;4.30;62.74
41062;BME280;26812;42.662;23.352;2024-03-23T03:10:32;94957.28;;;4.65;61.30
41062;BME280;26812;42.662;23.352;2024-03-23T03:13:00;94959.16;;;4.20;62.51
41062;BME280;26812;42.662;23.352;2024-03-23T03:15:26;94965.63;;;4.04;64.04
41062;BME280;26812;42.662;23.352;2024-03-23T03:17:51;94963.13;;;4.23;64.18
41062;BME280;26812;42.662;23.352;2024-03-23T03:20:17;94962.84;;;4.24;63.63
41062;BME280;26812;42.662;23.352;2024-03-23T03:22:43;94939.81;;;4.44;62.11
41062;BME280;26812;42.662;23.352;2024-03-23T03:25:09;94964.50;;;4.64;61.09
41062;BME280;26812;42.662;23.352;2024-03-23T03:27:34;94947.47;;;4.11;62.08
41062;BME280;26812;42.662;23.352;2024-03-23T03:30:00;94973.72;;;4.38;62.54
41062;BME280;26812;42.662;23.352;2024-03-23T03:32:32;94916.28;;;4.12;62.03
41062;BME280;26812;42.662;23.352;2024-03-23T03:34:57;94950.13;;;4.11;62.51
41062;BME280;26812;42.662;23.352;2024-03-23T03:37:23;94943.19;;;4.15;61.41
41062;BME280;26812;42.662;23.352;2024-03-23T03:39:49;94969.47;;;3.83;62.43
41062;BME280;26812;42.662;23.352;2024-03-23T03:42:14;94967.59;;;3.83;62.82
41062;BME280;26812;42.662;23.352;2024-03-23T03:44:40;94961.25;;;3.69;63.57
41062;BME280;26812;42.662;23.352;2024-03-23T03:47:06;94960.09;;;3.90;63.25
41062;BME280;26812;42.662;23.352;2024-03-23T03:49:32;94950.03;;;3.77;62.25
41062;BME280;26812;42.662;23.352;2024-03-23T03:51:57;94952.88;;;4.01;61.97
41062;BME280;26812;42.662;23.352;2024-03-23T03:54:23;94955.50;;;4.06;62.23
41062;BME280;26812;42.662;23.352;2024-03-23T03:56:48;94959.00;;;3.96;62.23
41062;BME280;26812;42.662;23.352;2024-03-23T03:59:13;94956.88;;;3.93;62.02
41062;BME280;26812;42.662;23.352;2024-03-23T04:01:39;94965.91;;;3.97;61.62
41062;BME280;26812;42.662;23.352;2024-03-23T04:04:05;94960.66;;;3.82;62.64
41062;BME280;26812;42.662;23.352;2024-03-23T04:06:30;94970.28;;;3.78;63.51
41062;BME280;26812;42.662;23.352;2024-03-23T04:08:56;94967.00;;;3.91;63.46
41062;BME280;26812;42.662;23.352;2024-03-23T04:11:21;94958.97;;;4.07;62.48
41062;BME280;26812;42.662;23.352;2024-03-23T04:13:46;94975.25;;;3.95;63.07
41062;BME280;26812;42.662;23.352;2024-03-23T04:16:13;94973.72;;;3.84;64.55
41062;BME280;26812;42.662;23.352;2024-03-23T04:18:38;94959.38;;;4.24;62.19
41062;BME280;26812;42.662;23.352;2024-03-23T04:21:03;94977.03;;;4.15;62.04
41062;BME280;26812;42.662;23.352;2024-03-23T04:23:29;94970.28;;;3.78;63.48
41062;BME280;26812;42.662;23.352;2024-03-23T04:25:54;94974.56;;;3.74;64.09
41062;BME280;26812;42.662;23.352;2024-03-23T04:28:20;94974.59;;;3.69;64.92
41062;BME280;26812;42.662;23.352;2024-03-23T04:30:46;94970.44;;;4.02;64.78
41062;BME280;26812;42.662;23.352;2024-03-23T04:33:12;94980.81;;;4.09;64.25
41062;BME280;26812;42.662;23.352;2024-03-23T04:35:37;94934.81;;;3.83;64.76
41062;BME280;26812;42.662;23.352;2024-03-23T04:38:03;94918.91;;;3.62;64.22
41062;BME280;26812;42.662;23.352;2024-03-23T04:40:28;94961.97;;;3.85;64.18
41062;BME280;26812;42.662;23.352;2024-03-23T04:42:54;94987.28;;;3.92;65.12
41062;BME280;26812;42.662;23.352;2024-03-23T04:45:19;94990.97;;;4.01;65.20
41062;BME280;26812;42.662;23.352;2024-03-23T04:47:45;94982.94;;;4.12;63.58
41062;BME280;26812;42.662;23.352;2024-03-23T04:50:11;94991.88;;;4.36;62.68
41062;BME280;26812;42.662;23.352;2024-03-23T04:52:37;94979.75;;;4.10;63.56
41062;BME280;26812;42.662;23.352;2024-03-23T04:55:02;94992.66;;;3.82;64.44
41062;BME280;26812;42.662;23.352;2024-03-23T04:57:28;94988.41;;;3.76;65.13
41062;BME280;26812;42.662;23.352;2024-03-23T04:59:53;94999.06;;;3.76;66.09
41062;BME280;26812;42.662;23.352;2024-03-23T05:02:19;94989.03;;;4.17;64.06
41062;BME280;26812;42.662;23.352;2024-03-23T05:04:44;94990.31;;;4.30;63.85
41062;BME280;26812;42.662;23.352;2024-03-23T05:07:10;94992.66;;;4.42;63.10
41062;BME280;26812;42.662;23.352;2024-03-23T05:09:36;94993.25;;;4.23;63.80
41062;BME280;26812;42.662;23.352;2024-03-23T05:12:02;94994.56;;;4.31;64.19
41062;BME280;26812;42.662;23.352;2024-03-23T05:14:27;94992.06;;;4.50;63.89
41062;BME280;26812;42.662;23.352;2024-03-23T05:16:53;94985.00;;;4.20;64.98
41062;BME280;26812;42.662;23.352;2024-03-23T05:19:19;94993.09;;;4.54;64.24
41062;BME280;26812;42.662;23.352;2024-03-23T05:21:44;94995.47;;;4.55;63.48
41062;BME280;26812;42.662;23.352;2024-03-23T05:24:11;94977.03;;;4.64;63.55
41062;BME280;26812;42.662;23.352;2024-03-23T05:26:37;94984.78;;;5.28;60.42
41062;BME280;26812;42.662;23.352;2024-03-23T05:29:02;94979.22;;;5.54;59.31
41062;BME280;26812;42.662;23.352;2024-03-23T05:31:30;94972.63;;;5.12;59.65
41062;BME280;26812;42.662;23.352;2024-03-23T05:33:56;94938.84;;;4.29;58.10
41062;BME280;26812;42.662;23.352;2024-03-23T05:36:21;94983.91;;;4.31;58.84
41062;BME280;26812;42.662;23.352;2024-03-23T05:38:47;94983.22;;;4.93;57.00
41062;BME280;26812;42.662;23.352;2024-03-23T05:41:13;94991.78;;;5.24;55.58
41062;BME280;26812;42.662;23.352;2024-03-23T05:43:38;94993.97;;;6.79;51.79
41062;BME280;26812;42.662;23.352;2024-03-23T05:46:04;94985.31;;;7.66;49.04
41062;BME280;26812;42.662;23.352;2024-03-23T05:48:38;94980.91;;;8.66;45.08
41062;BME280;26812;42.662;23.352;2024-03-23T05:51:04;94983.34;;;9.66;43.12
41062;BME280;26812;42.662;23.352;2024-03-23T05:53:29;94987.19;;;10.53;41.60
41062;BME280;26812;42.662;23.352;2024-03-23T05:56:02;94985.91;;;11.45;39.82
41062;BME280;26812;42.662;23.352;2024-03-23T05:58:32;94958.97;;;11.28;38.82
41062;BME280;26812;42.662;23.352;2024-03-23T06:00:59;94982.13;;;12.10;37.51
41062;BME280;26812;42.662;23.352;2024-03-23T06:03:28;94977.78;;;12.98;36.31
41062;BME280;26812;42.662;23.352;2024-03-23T06:05:54;94953.56;;;13.01;35.48
41062;BME280;26812;42.662;23.352;2024-03-23T06:08:20;94957.06;;;12.31;37.27
41062;BME280;26812;42.662;23.352;2024-03-23T06:10:46;94974.78;;;13.20;35.82
41062;BME280;26812;42.662;23.352;2024-03-23T06:13:12;94980.56;;;14.09;34.45
41062;BME280;26812;42.662;23.352;2024-03-23T06:15:37;94949.72;;;14.38;33.43
41062;BME280;26812;42.662;23.352;2024-03-23T06:18:04;94974.91;;;14.87;33.16
41062;BME280;26812;42.662;23.352;2024-03-23T06:20:30;94979.56;;;15.55;31.93
41062;BME280;26812;42.662;23.352;2024-03-23T06:22:56;94979.03;;;15.77;31.26
41062;BME280;26812;42.662;23.352;2024-03-23T06:25:21;94974.44;;;15.94;30.90
41062;BME280;26812;42.662;23.352;2024-03-23T06:27:47;94978.53;;;16.19;30.41
41062;BME280;26812;42.662;23.352;2024-03-23T06:30:12;94969.84;;;16.61;30.23
41062;BME280;26812;42.662;23.352;2024-03-23T06:32:38;94966.25;;;16.88;29.91
41062;BME280;26812;42.662;23.352;2024-03-23T06:35:03;94957.34;;;18.07;27.65
41062;BME280;26812;42.662;23.352;2024-03-23T06:37:52;94973.22;;;18.70;26.34
41062;BME280;26812;42.662;23.352;2024-03-23T06:40:17;94974.94;;;18.82;26.36
41062;BME280;26812;42.662;23.352;2024-03-23T06:42:43;94975.56;;;18.49;26.11
41062;BME280;26812;42.662;23.352;2024-03-23T06:45:08;94959.03;;;18.15;26.50
41062;BME280;26812;42.662;23.352;2024-03-23T06:47:34;94970.78;;;17.19;27.74
41062;BME280;26812;42.662;23.352;2024-03-23T06:50:02;94960.50;;;18.09;26.79
41062;BME280;26812;42.662;23.352;2024-03-23T06:52:28;94965.00;;;18.97;25.77
41062;BME280;26812;42.662;23.352;2024-03-23T06:54:53;94972.63;;;20.48;23.99
41062;BME280;26812;42.662;23.352;2024-03-23T06:57:19;94952.59;;;21.54;22.77
41062;BME280;26812;42.662;23.352;2024-03-23T06:59:45;94967.56;;;23.66;20.22
41062;BME280;26812;42.662;23.352;2024-03-23T07:02:11;94952.75;;;25.57;18.93
41062;BME280;26812;42.662;23.352;2024-03-23T07:04:36;94955.50;;;23.28;19.90
41062;BME280;26812;42.662;23.352;2024-03-23T07:07:02;94947.38;;;18.64;24.91
41062;BME280;26812;42.662;23.352;2024-03-23T07:09:28;94951.13;;;20.50;24.02
41062;BME280;26812;42.662;23.352;2024-03-23T07:11:55;94948.25;;;23.77;20.72
41062;BME280;26812;42.662;23.352;2024-03-23T07:14:22;94946.97;;;25.06;19.77
41062;BME280;26812;42.662;23.352;2024-03-23T07:16:47;94945.97;;;26.53;17.77
41062;BME280;26812;42.662;23.352;2024-03-23T07:19:17;94934.06;;;27.89;16.36
41062;BME280;26812;42.662;23.352;2024-03-23T07:21:44;94935.66;;;30.36;15.62
41062;BME280;26812;42.662;23.352;2024-03-23T07:24:10;94928.31;;;32.06;13.37
41062;BME280;26812;42.662;23.352;2024-03-23T07:26:36;94923.59;;;33.05;12.63
41062;BME280;26812;42.662;23.352;2024-03-23T07:29:01;94934.31;;;32.57;12.93
41062;BME280;26812;42.662;23.352;2024-03-23T07:31:27;94931.50;;;31.73;12.90
41062;BME280;26812;42.662;23.352;2024-03-23T07:33:52;94913.19;;;30.81;14.04
41062;BME280;26812;42.662;23.352;2024-03-23T07:36:19;94919.47;;;29.93;14.05
41062;BME280;26812;42.662;23.352;2024-03-23T07:38:45;94921.47;;;28.57;15.11
41062;BME280;26812;42.662;23.352;2024-03-23T07:41:13;94913.34;;;28.50;15.73
41062;BME280;26812;42.662;23.352;2024-03-23T07:43:40;94922.66;;;29.21;14.48
41062;BME280;26812;42.662;23.352;2024-03-23T07:46:06;94902.03;;;29.05;14.92
41062;BME280;26812;42.662;23.352;2024-03-23T07:48:32;94922.63;;;28.92;15.27
41062;BME280;26812;42.662;23.352;2024-03-23T07:53:28;94902.97;;;26.75;17.04
41062;BME280;26812;42.662;23.352;2024-03-23T07:55:58;94902.59;;;26.50;17.62
41062;BME280;26812;42.662;23.352;2024-03-23T07:58:25;94911.25;;;27.42;16.52
41062;BME280;26812;42.662;23.352;2024-03-23T08:00:52;94907.00;;;27.37;16.63
41062;BME280;26812;42.662;23.352;2024-03-23T08:03:17;94908.66;;;28.63;15.92
41062;BME280;26812;42.662;23.352;2024-03-23T08:05:43;94899.56;;;28.79;15.29
41062;BME280;26812;42.662;23.352;2024-03-23T08:08:08;94906.13;;;29.88;14.41
41062;BME280;26812;42.662;23.352;2024-03-23T08:10:34;94905.03;;;28.50;15.01
41062;BME280;26812;42.662;23.352;2024-03-23T08:13:00;94910.31;;;27.09;17.11
41062;BME280;26812;42.662;23.352;2024-03-23T08:15:25;94898.72;;;26.47;17.30
41062;BME280;26812;42.662;23.352;2024-03-23T08:17:50;94906.13;;;25.66;18.28
41062;BME280;26812;42.662;23.352;2024-03-23T08:20:16;94906.03;;;25.77;17.77
41062;BME280;26812;42.662;23.352;2024-03-23T08:22:41;94872.66;;;24.99;18.55
41062;BME280;26812;42.662;23.352;2024-03-23T08:25:07;94893.97;;;24.51;19.18
41062;BME280;26812;42.662;23.352;2024-03-23T08:27:32;94891.19;;;21.94;21.29
41062;BME280;26812;42.662;23.352;2024-03-23T08:29:58;94847.66;;;21.57;22.36
41062;BME280;26812;42.662;23.352;2024-03-23T08:32:24;94893.28;;;23.70;20.63
41062;BME280;26812;42.662;23.352;2024-03-23T08:34:49;94891.28;;;24.40;19.38
41062;BME280;26812;42.662;23.352;2024-03-23T08:37:14;94891.53;;;25.69;18.26
41062;BME280;26812;42.662;23.352;2024-03-23T08:39:40;94891.50;;;25.73;18.19
41062;BME280;26812;42.662;23.352;2024-03-23T08:42:06;94882.72;;;26.08;17.49
41062;BME280;26812;42.662;23.352;2024-03-23T08:44:31;94866.34;;;25.94;17.43
41062;BME280;26812;42.662;23.352;2024-03-23T08:46:57;94873.50;;;26.69;17.31
41062;BME280;26812;42.662;23.352;2024-03-23T08:49:22;94876.13;;;26.25;17.57
41062;BME280;26812;42.662;23.352;2024-03-23T08:51:47;94868.13;;;26.58;17.77
41062;BME280;26812;42.662;23.352;2024-03-23T08:54:13;94865.00;;;25.79;17.78
41062;BME280;26812;42.662;23.352;2024-03-23T08:56:39;94864.38;;;26.21;17.24
41062;BME280;26812;42.662;23.352;2024-03-23T08:59:04;94858.41;;;25.04;18.76
41062;BME280;26812;42.662;23.352;2024-03-23T09:01:31;94855.59;;;24.29;19.32
41062;BME280;26812;42.662;23.352;2024-03-23T09:03:56;94855.78;;;24.01;19.13
41062;BME280;26812;42.662;23.352;2024-03-23T09:06:21;94856.78;;;23.55;20.52
41062;BME280;26812;42.662;23.352;2024-03-23T09:08:47;94856.38;;;23.67;20.45
41062;BME280;26812;42.662;23.352;2024-03-23T09:11:13;94848.25;;;24.57;18.69
41062;BME280;26812;42.662;23.352;2024-03-23T09:13:39;94839.16;;;20.86;22.92
41062;BME280;26812;42.662;23.352;2024-03-23T09:16:06;94833.53;;;21.55;21.71
41062;BME280;26812;42.662;23.352;2024-03-23T09:18:34;94831.66;;;22.44;20.92
41062;BME280;26812;42.662;23.352;2024-03-23T09:21:02;94828.81;;;22.80;20.54
41062;BME280;26812;42.662;23.352;2024-03-23T09:23:28;94826.28;;;23.35;19.99
41062;BME280;26812;42.662;23.352;2024-03-23T09:25:53;94806.63;;;23.37;20.13
41062;BME280;26812;42.662;23.352;2024-03-23T09:28:19;94816.41;;;24.07;19.99
41062;BME280;26812;42.662;23.352;2024-03-23T09:30:44;94808.63;;;23.33;19.62
41062;BME280;26812;42.662;23.352;2024-03-23T09:33:10;94789.16;;;22.95;19.92
41062;BME280;26812;42.662;23.352;2024-03-23T09:35:39;94808.25;;;23.23;20.26
41062;BME280;26812;42.662;23.352;2024-03-23T09:38:04;94793.78;;;23.16;20.35
41062;BME280;26812;42.662;23.352;2024-03-23T09:40:31;94802.09;;;22.95;20.16
41062;BME280;26812;42.662;23.352;2024-03-23T09:42:57;94795.47;;;22.88;21.00
41062;BME280;26812;42.662;23.352;2024-03-23T09:45:28;94781.47;;;22.40;22.09
41062;BME280;26812;42.662;23.352;2024-03-23T09:47:57;94789.97;;;22.85;21.25
41062;BME280;26812;42.662;23.352;2024-03-23T09:50:23;94781.81;;;23.51;20.10
41062;BME280;26812;42.662;23.352;2024-03-23T09:52:49;94777.84;;;22.75;20.73
41062;BME280;26812;42.662;23.352;2024-03-23T09:55:14;94771.66;;;22.39;20.50
41062;BME280;26812;42.662;23.352;2024-03-23T09:57:41;94769.72;;;21.97;22.43
41062;BME280;26812;42.662;23.352;2024-03-23T10:00:07;94771.31;;;22.16;21.92
41062;BME280;26812;42.662;23.352;2024-03-23T10:02:34;94769.91;;;22.95;21.05
41062;BME280;26812;42.662;23.352;2024-03-23T10:05:00;94755.59;;;21.42;21.84
41062;BME280;26812;42.662;23.352;2024-03-23T10:07:25;94734.28;;;20.74;22.83
41062;BME280;26812;42.662;23.352;2024-03-23T10:09:51;94753.28;;;21.58;22.13
41062;BME280;26812;42.662;23.352;2024-03-23T10:12:18;94726.19;;;21.17;22.17
41062;BME280;26812;42.662;23.352;2024-03-23T10:14:44;94743.44;;;19.72;24.27
41062;BME280;26812;42.662;23.352;2024-03-23T10:17:20;94746.75;;;20.68;23.22
41062;BME280;26812;42.662;23.352;2024-03-23T10:19:47;94737.63;;;21.48;22.53
41062;BME280;26812;42.662;23.352;2024-03-23T10:22:22;94723.19;;;19.33;25.07
41062;BME280;26812;42.662;23.352;2024-03-23T10:24:48;94726.53;;;20.18;23.97
41062;BME280;26812;42.662;23.352;2024-03-23T10:27:21;94726.63;;;21.30;23.01
41062;BME280;26812;42.662;23.352;2024-03-23T10:29:48;94688.66;;;21.75;22.32
41062;BME280;26812;42.662;23.352;2024-03-23T10:32:16;94718.72;;;22.42;21.88
41062;BME280;26812;42.662;23.352;2024-03-23T10:34:42;94718.31;;;21.05;23.27
41062;BME280;26812;42.662;23.352;2024-03-23T10:37:08;94709.91;;;19.82;24.24
41062;BME280;26812;42.662;23.352;2024-03-23T10:39:40;94697.59;;;21.04;24.40
41062;BME280;26812;42.662;23.352;2024-03-23T10:42:07;94674.16;;;21.42;23.19
41062;BME280;26812;42.662;23.352;2024-03-23T10:44:34;94681.59;;;21.59;23.00
41062;BME280;26812;42.662;23.352;2024-03-23T10:47:04;94685.84;;;22.24;22.27
41062;BME280;26812;42.662;23.352;2024-03-23T10:49:31;94682.13;;;22.81;21.19
41062;BME280;26812;42.662;23.352;2024-03-23T10:51:58;94661.84;;;23.19;20.98
41062;BME280;26812;42.662;23.352;2024-03-23T10:54:25;94666.16;;;23.76;20.18
41062;BME280;26812;42.662;23.352;2024-03-23T10:56:58;94665.88;;;23.08;20.46
41062;BME280;26812;42.662;23.352;2024-03-23T10:59:25;94653.91;;;23.80;19.82
41062;BME280;26812;42.662;23.352;2024-03-23T11:01:58;94627.56;;;24.21;20.06
41062;BME280;26812;42.662;23.352;2024-03-23T11:04:31;94643.13;;;23.52;18.88
41062;BME280;26812;42.662;23.352;2024-03-23T11:06:57;94640.00;;;23.02;20.41
41062;BME280;26812;42.662;23.352;2024-03-23T11:14:56;94625.16;;;22.05;21.00
41062;BME280;26812;42.662;23.352;2024-03-23T11:17:23;94618.97;;;21.22;21.70
41062;BME280;26812;42.662;23.352;2024-03-23T11:22:41;94608.00;;;21.51;22.00
41062;BME280;26812;42.662;23.352;2024-03-23T11:25:25;94600.16;;;21.10;21.23
41062;BME280;26812;42.662;23.352;2024-03-23T11:30:21;94597.78;;;20.69;21.45
41062;BME280;26812;42.662;23.352;2024-03-23T11:32:49;94585.56;;;20.35;23.03
41062;BME280;26812;42.662;23.352;2024-03-23T11:35:32;94589.53;;;21.73;21.41
41062;BME280;26812;42.662;23.352;2024-03-23T11:38:16;94588.28;;;20.35;22.27
41062;BME280;26812;42.662;23.352;2024-03-23T11:40:47;94586.09;;;21.44;21.81
41062;BME280;26812;42.662;23.352;2024-03-23T11:45:44;94572.00;;;21.20;21.17
41062;BME280;26812;42.662;23.352;2024-03-23T11:48:12;94563.75;;;20.53;21.71
41062;BME280;26812;42.662;23.352;2024-03-23T11:50:40;94552.44;;;21.15;21.86
41062;BME280;26812;42.662;23.352;2024-03-23T11:53:26;94543.81;;;21.37;21.66
41062;BME280;26812;42.662;23.352;2024-03-23T11:55:56;94548.34;;;20.02;22.44
41062;BME280;26812;42.662;23.352;2024-03-23T11:58:23;94535.97;;;20.47;22.97
41062;BME280;26812;42.662;23.352;2024-03-23T12:01:02;94534.03;;;21.22;21.78
41062;BME280;26812;42.662;23.352;2024-03-23T12:03:28;94528.69;;;22.17;21.30
41062;BME280;26812;42.662;23.352;2024-03-23T12:05:58;94524.06;;;22.69;20.66
41062;BME280;26812;42.662;23.352;2024-03-23T12:08:31;94511.97;;;23.11;19.95
41062;BME280;26812;42.662;23.352;2024-03-23T12:11:17;94505.81;;;23.00;19.63
41062;BME280;26812;42.662;23.352;2024-03-23T12:13:44;94513.72;;;20.73;21.51
41062;BME280;26812;42.662;23.352;2024-03-23T12:16:19;94507.09;;;19.52;23.10
41062;BME280;26812;42.662;23.352;2024-03-23T12:18:49;94506.78;;;19.61;23.11
41062;BME280;26812;42.662;23.352;2024-03-23T12:21:16;94504.69;;;20.48;22.30
41062;BME280;26812;42.662;23.352;2024-03-23T12:23:43;94471.78;;;21.41;21.02
41062;BME280;26812;42.662;23.352;2024-03-23T12:26:10;94504.44;;;22.08;20.67
41062;BME280;26812;42.662;23.352;2024-03-23T12:28:37;94490.63;;;22.26;20.81
41062;BME280;26812;42.662;23.352;2024-03-23T12:31:03;94483.69;;;22.66;19.78
41062;BME280;26812;42.662;23.352;2024-03-23T12:33:28;94478.59;;;22.61;20.07
41062;BME280;26812;42.662;23.352;2024-03-23T12:35:53;94474.88;;;22.89;19.77
41062;BME280;26812;42.662;23.352;2024-03-23T12:38:19;94488.22;;;22.35;19.65
41062;BME280;26812;42.662;23.352;2024-03-23T12:40:51;94474.78;;;22.51;19.26
41062;BME280;26812;42.662;23.352;2024-03-23T12:43:17;94437.72;;;22.22;19.20
41062;BME280;26812;42.662;23.352;2024-03-23T12:45:46;94468.63;;;22.33;20.02
41062;BME280;26812;42.662;23.352;2024-03-23T12:48:12;94465.53;;;21.44;20.92
41062;BME280;26812;42.662;23.352;2024-03-23T12:50:38;94433.78;;;22.26;19.94
41062;BME280;26812;42.662;23.352;2024-03-23T12:53:04;94461.88;;;22.45;20.50
41062;BME280;26812;42.662;23.352;2024-03-23T12:55:29;94443.66;;;22.65;19.60
41062;BME280;26812;42.662;23.352;2024-03-23T12:57:54;94439.78;;;22.62;20.00
41062;BME280;26812;42.662;23.352;2024-03-23T13:00:20;94435.31;;;22.79;18.98
41062;BME280;26812;42.662;23.352;2024-03-23T13:02:45;94413.03;;;22.22;19.26
41062;BME280;26812;42.662;23.352;2024-03-23T13:05:11;94433.47;;;21.08;19.96
41062;BME280;26812;42.662;23.352;2024-03-23T13:07:36;94424.09;;;21.09;20.73
41062;BME280;26812;42.662;23.352;2024-03-23T13:10:04;94423.84;;;21.84;18.45
41062;BME280;26812;42.662;23.352;2024-03-23T13:12:30;94421.75;;;21.15;17.02
41062;BME280;26812;42.662;23.352;2024-03-23T13:14:56;94406.94;;;20.81;20.13
41062;BME280;26812;42.662;23.352;2024-03-23T13:17:21;94405.25;;;21.36;17.90
41062;BME280;26812;42.662;23.352;2024-03-23T13:19:47;94410.59;;;21.68;17.58
41062;BME280;26812;42.662;23.352;2024-03-23T13:22:12;94388.88;;;21.26;17.04
41062;BME280;26812;42.662;23.352;2024-03-23T13:24:38;94400.69;;;20.84;17.68
41062;BME280;26812;42.662;23.352;2024-03-23T13:27:03;94401.09;;;20.36;19.91
41062;BME280;26812;42.662;23.352;2024-03-23T13:29:33;94408.50;;;20.96;18.55
41062;BME280;26812;42.662;23.352;2024-03-23T13:31:59;94388.63;;;20.60;18.33
41062;BME280;26812;42.662;23.352;2024-03-23T13:34:25;94392.50;;;20.62;17.66
41062;BME280;26812;42.662;23.352;2024-03-23T13:36:50;94377.28;;;20.47;18.26
41062;BME280;26812;42.662;23.352;2024-03-23T13:39:16;94394.84;;;20.32;18.74
41062;BME280;26812;42.662;23.352;2024-03-23T13:41:44;94379.63;;;20.45;17.91
41062;BME280;26812;42.662;23.352;2024-03-23T13:44:12;94374.06;;;20.91;17.56
41062;BME280;26812;42.662;23.352;2024-03-23T13:46:40;94379.56;;;20.91;17.45
41062;BME280;26812;42.662;23.352;2024-03-23T13:49:06;94380.69;;;21.01;17.10
41062;BME280;26812;42.662;23.352;2024-03-23T13:51:32;94378.34;;;21.03;19.35
41062;BME280;26812;42.662;23.352;2024-03-23T13:53:57;94365.41;;;21.11;16.59
41062;BME280;26812;42.662;23.352;2024-03-23T13:56:26;94365.16;;;20.55;17.28
41062;BME280;26812;42.662;23.352;2024-03-23T13:58:54;94368.28;;;20.64;18.05
41062;BME280;26812;42.662;23.352;2024-03-23T14:01:19;94358.09;;;20.72;19.66